createdAt,value
2018-01-18T00:00:33.054Z,96.50
2018-01-18T00:01:33.162Z,96.50
2018-01-18T00:02:33.006Z,97.26
2018-01-18T00:03:33.071Z,96.88
2018-01-18T00:04:32.945Z,97.16
2018-01-18T00:05:32.982Z,97.64
2018-01-18T00:06:32.891Z,97.26
2018-01-18T00:07:32.887Z,96.69
2018-01-18T00:08:33.002Z,96.78
2018-01-18T00:09:32.803Z,97.26
2018-01-18T00:10:32.912Z,96.50
2018-01-18T00:11:32.749Z,95.55
2018-01-18T00:12:32.725Z,95.36
2018-01-18T00:13:32.707Z,96.22
2018-01-18T00:14:32.731Z,96.31
2018-01-18T00:15:32.643Z,96.50
2018-01-18T00:16:32.744Z,95.74
2018-01-18T00:17:32.582Z,96.69
2018-01-18T00:18:32.654Z,96.41
2018-01-18T00:19:32.530Z,95.36
2018-01-18T00:20:32.600Z,95.26
2018-01-18T00:21:32.482Z,95.74
2018-01-18T00:22:32.576Z,95.93
2018-01-18T00:23:32.423Z,95.93
2018-01-18T00:24:32.484Z,95.55
2018-01-18T00:25:32.364Z,96.22
2018-01-18T00:26:32.397Z,95.74
2018-01-18T00:27:32.308Z,95.45
2018-01-18T00:28:32.408Z,95.84
2018-01-18T00:29:32.261Z,95.84
2018-01-18T00:30:32.316Z,96.50
2018-01-18T00:31:32.195Z,96.88
2018-01-18T00:32:32.226Z,96.88
2018-01-18T00:33:32.230Z,96.50
2018-01-18T00:34:32.118Z,96.41
2018-01-18T00:35:32.142Z,96.41
2018-01-18T00:36:32.060Z,96.50
2018-01-18T00:37:32.156Z,96.59
2018-01-18T00:38:32.002Z,96.88
2018-01-18T00:39:32.065Z,96.88
2018-01-18T00:40:31.949Z,96.50
2018-01-18T00:41:31.973Z,96.88
2018-01-18T00:42:31.892Z,96.88
2018-01-18T00:43:31.986Z,96.69
2018-01-18T00:44:31.839Z,96.50
2018-01-18T00:45:31.895Z,96.59
2018-01-18T00:46:31.786Z,96.50
2018-01-18T00:47:31.806Z,97.07
2018-01-18T00:48:31.733Z,96.41
2018-01-18T00:49:31.842Z,96.50
2018-01-18T00:50:31.677Z,95.74
2018-01-18T00:51:31.728Z,96.03
2018-01-18T00:52:31.613Z,95.74
2018-01-18T00:53:31.638Z,95.84
2018-01-18T00:54:31.565Z,96.50
2018-01-18T00:55:31.535Z,96.31
2018-01-18T00:56:31.504Z,95.84
2018-01-18T00:57:31.557Z,96.31
2018-01-18T00:58:31.451Z,96.41
2018-01-18T00:59:31.691Z,96.50
2018-01-18T01:00:31.431Z,96.69
2018-01-18T01:01:31.366Z,96.41
2018-01-18T01:02:31.341Z,96.41
2018-01-18T01:03:31.390Z,96.69
2018-01-18T01:04:31.321Z,96.69
2018-01-18T01:05:31.300Z,95.74
2018-01-18T01:06:31.233Z,96.69
2018-01-18T01:07:31.314Z,96.41
2018-01-18T01:08:31.174Z,97.16
2018-01-18T01:09:31.223Z,96.22
2018-01-18T01:10:31.229Z,97.07
2018-01-18T01:11:31.093Z,97.07
2018-01-18T01:12:31.139Z,96.69
2018-01-18T01:13:31.040Z,96.31
2018-01-18T01:14:31.050Z,96.50
2018-01-18T01:15:30.982Z,96.69
2018-01-18T01:16:30.957Z,96.50
2018-01-18T01:17:30.965Z,96.03
2018-01-18T01:18:30.897Z,95.74
2018-01-18T01:19:30.978Z,95.93
2018-01-18T01:20:30.887Z,96.69
2018-01-18T01:21:30.817Z,97.26
2018-01-18T01:22:30.895Z,96.59
2018-01-18T01:23:30.759Z,96.22
2018-01-18T01:24:30.908Z,97.16
2018-01-18T01:25:30.709Z,96.41
2018-01-18T01:26:30.680Z,96.03
2018-01-18T01:27:30.822Z,96.50
2018-01-18T01:28:30.625Z,96.41
2018-01-18T01:29:30.734Z,96.97
2018-01-18T01:30:30.571Z,96.69
2018-01-18T01:31:30.745Z,97.07
2018-01-18T01:32:30.514Z,97.07
2018-01-18T01:33:30.657Z,97.07
2018-01-18T01:34:30.458Z,96.88
2018-01-18T01:35:30.428Z,97.26
2018-01-18T01:36:30.407Z,96.97
2018-01-18T01:37:30.601Z,97.35
2018-01-18T01:38:30.350Z,96.59
2018-01-18T01:39:30.485Z,97.26
2018-01-18T01:40:30.290Z,96.41
2018-01-18T01:41:30.264Z,97.45
2018-01-18T01:42:30.401Z,96.88
2018-01-18T01:43:30.212Z,97.45
2018-01-18T01:44:30.311Z,96.97
2018-01-18T01:45:30.154Z,97.07
2018-01-18T01:46:30.324Z,96.88
2018-01-18T01:47:30.104Z,97.07
2018-01-18T01:48:30.231Z,96.97
2018-01-18T01:49:30.044Z,97.26
2018-01-18T01:50:30.144Z,97.64
2018-01-18T01:51:29.990Z,97.16
2018-01-18T01:52:30.359Z,96.59
2018-01-18T01:53:29.934Z,97.45
2018-01-18T01:54:29.914Z,96.78
2018-01-18T01:55:29.882Z,97.35
2018-01-18T01:56:29.974Z,97.92
2018-01-18T01:57:29.839Z,97.64
2018-01-18T01:58:29.989Z,97.64
2018-01-18T01:59:29.775Z,97.54
2018-01-18T02:00:29.897Z,97.73
2018-01-18T02:01:29.715Z,98.21
2018-01-18T02:02:29.810Z,98.21
2018-01-18T02:03:29.815Z,97.73
2018-01-18T02:04:29.635Z,98.21
2018-01-18T02:05:29.724Z,98.11
2018-01-18T02:06:29.576Z,98.77
2018-01-18T02:07:29.735Z,98.49
2018-01-18T02:08:29.548Z,98.30
2018-01-18T02:09:29.498Z,98.77
2018-01-18T02:10:29.649Z,99.25
2018-01-18T02:11:29.445Z,98.49
2018-01-18T02:12:29.561Z,99.34
2018-01-18T02:13:29.388Z,98.87
2018-01-18T02:14:29.470Z,99.25
2018-01-18T02:15:29.365Z,98.39
2018-01-18T02:16:29.305Z,98.49
2018-01-18T02:17:29.281Z,98.77
2018-01-18T02:18:29.393Z,99.63
2018-01-18T02:19:29.218Z,99.53
2018-01-18T02:20:29.305Z,99.15
2018-01-18T02:21:29.167Z,99.15
2018-01-18T02:22:29.141Z,98.96
2018-01-18T02:23:29.222Z,98.68
2018-01-18T02:24:29.087Z,99.53
2018-01-18T02:25:29.228Z,99.63
2018-01-18T02:26:29.032Z,99.99
2018-01-18T02:27:29.141Z,99.99
2018-01-18T02:28:28.976Z,99.99
2018-01-18T02:29:29.050Z,99.99
2018-01-18T02:30:28.922Z,99.99
2018-01-18T02:31:29.066Z,99.99
2018-01-18T02:32:28.907Z,99.99
2018-01-18T02:33:28.834Z,99.99
2018-01-18T02:34:28.978Z,99.99
2018-01-18T02:35:28.784Z,99.99
2018-01-18T02:36:28.905Z,99.99
2018-01-18T02:37:28.728Z,99.99
2018-01-18T02:38:28.798Z,99.99
2018-01-18T02:39:28.678Z,99.99
2018-01-18T02:40:28.811Z,99.99
2018-01-18T02:41:28.618Z,99.99
2018-01-18T02:42:28.722Z,99.99
2018-01-18T02:43:28.565Z,99.99
2018-01-18T02:44:28.534Z,99.99
2018-01-18T02:45:28.507Z,99.99
2018-01-18T02:46:28.643Z,99.99
2018-01-18T02:47:28.458Z,99.99
2018-01-18T02:48:28.551Z,99.99
2018-01-18T02:49:28.400Z,99.99
2018-01-18T02:50:28.375Z,99.99
2018-01-18T02:51:28.474Z,99.99
2018-01-18T02:52:28.319Z,99.99
2018-01-18T02:53:28.378Z,99.99
2018-01-18T02:54:28.262Z,99.99
2018-01-18T02:55:28.389Z,99.99
2018-01-18T02:56:28.208Z,99.99
2018-01-18T02:57:28.300Z,99.99
2018-01-18T02:58:28.157Z,99.99
2018-01-18T02:59:28.125Z,99.99
2018-01-18T03:00:28.100Z,99.99
2018-01-18T03:01:28.222Z,99.99
2018-01-18T03:02:28.045Z,99.99
2018-01-18T03:03:28.133Z,99.99
2018-01-18T03:04:27.988Z,99.99
2018-01-18T03:05:28.043Z,99.99
2018-01-18T03:06:27.931Z,99.99
2018-01-18T03:07:28.055Z,99.99
2018-01-18T03:08:27.878Z,99.99
2018-01-18T03:09:27.964Z,99.99
2018-01-18T03:10:27.827Z,99.99
2018-01-18T03:11:27.874Z,99.99
2018-01-18T03:12:27.766Z,99.99
2018-01-18T03:13:27.885Z,99.99
2018-01-18T03:14:27.721Z,99.99
2018-01-18T03:15:27.794Z,99.99
2018-01-18T03:16:27.660Z,99.99
2018-01-18T03:17:27.635Z,99.99
2018-01-18T03:18:27.605Z,99.99
2018-01-18T03:19:27.716Z,99.99
2018-01-18T03:20:27.549Z,99.99
2018-01-18T03:21:27.629Z,99.99
2018-01-18T03:22:27.498Z,99.99
2018-01-18T03:23:27.544Z,99.99
2018-01-18T03:24:27.443Z,99.99
2018-01-18T03:25:27.550Z,99.99
2018-01-18T03:26:27.384Z,99.99
2018-01-18T03:27:27.460Z,99.99
2018-01-18T03:28:27.329Z,99.99
2018-01-18T03:29:27.371Z,99.99
2018-01-18T03:30:27.276Z,99.99
2018-01-18T03:31:27.384Z,99.99
2018-01-18T03:32:27.220Z,99.99
2018-01-18T03:33:27.189Z,99.99
2018-01-18T03:34:27.168Z,99.99
2018-01-18T03:35:27.197Z,99.99
2018-01-18T03:36:27.112Z,99.99
2018-01-18T03:37:27.212Z,99.99
2018-01-18T03:38:27.054Z,99.99
2018-01-18T03:39:27.122Z,99.99
2018-01-18T03:40:27.002Z,99.99
2018-01-18T03:41:26.971Z,99.99
2018-01-18T03:42:26.958Z,99.99
2018-01-18T03:43:27.046Z,99.99
2018-01-18T03:44:26.894Z,99.99
2018-01-18T03:45:26.959Z,99.99
2018-01-18T03:46:26.843Z,99.99
2018-01-18T03:47:26.866Z,99.99
2018-01-18T03:48:26.781Z,99.99
2018-01-18T03:49:26.891Z,99.99
2018-01-18T03:50:26.733Z,99.99
2018-01-18T03:51:26.788Z,99.99
2018-01-18T03:52:26.669Z,99.99
2018-01-18T03:53:26.697Z,99.99
2018-01-18T03:54:26.612Z,99.99
2018-01-18T03:55:26.715Z,99.99
2018-01-18T03:56:26.556Z,99.99
2018-01-18T03:57:26.620Z,99.99
2018-01-18T03:58:26.626Z,99.99
2018-01-18T03:59:26.477Z,99.99
2018-01-18T04:00:26.538Z,99.99
2018-01-18T04:01:26.424Z,99.99
2018-01-18T04:02:26.445Z,99.99
2018-01-18T04:03:26.363Z,99.99
2018-01-18T04:04:26.342Z,99.99
2018-01-18T04:05:26.315Z,99.99
2018-01-18T04:06:26.367Z,99.99
2018-01-18T04:07:26.253Z,99.99
2018-01-18T04:08:26.278Z,99.99
2018-01-18T04:09:26.205Z,99.99
2018-01-18T04:10:26.389Z,99.99
2018-01-18T04:11:26.179Z,99.99
2018-01-18T04:12:26.301Z,99.99
2018-01-18T04:13:26.093Z,99.99
2018-01-18T04:14:26.210Z,99.99
2018-01-18T04:15:26.040Z,99.99
2018-01-18T04:16:26.010Z,99.99
2018-01-18T04:17:26.126Z,99.99
2018-01-18T04:18:25.958Z,99.99
2018-01-18T04:19:26.138Z,99.99
2018-01-18T04:20:25.897Z,99.99
2018-01-18T04:21:25.874Z,99.99
2018-01-18T04:22:25.845Z,99.99
2018-01-18T04:23:25.958Z,99.99
2018-01-18T04:24:25.788Z,99.99
2018-01-18T04:25:25.970Z,99.99
2018-01-18T04:26:25.738Z,99.99
2018-01-18T04:27:25.707Z,99.99
2018-01-18T04:28:25.885Z,99.99
2018-01-18T04:29:25.650Z,99.99
2018-01-18T04:30:25.800Z,99.99
2018-01-18T04:31:25.602Z,99.99
2018-01-18T04:32:25.565Z,99.99
2018-01-18T04:33:25.539Z,99.99
2018-01-18T04:34:25.717Z,99.99
2018-01-18T04:35:25.480Z,99.99
2018-01-18T04:36:25.631Z,99.99
2018-01-18T04:37:25.428Z,99.99
2018-01-18T04:38:25.537Z,99.99
2018-01-18T04:39:25.377Z,99.99
2018-01-18T04:40:25.550Z,99.99
2018-01-18T04:41:25.318Z,99.99
2018-01-18T04:42:25.463Z,99.99
2018-01-18T04:43:25.259Z,99.99
2018-01-18T04:44:25.233Z,99.99
2018-01-18T04:45:25.210Z,99.99
2018-01-18T04:46:25.276Z,99.99
2018-01-18T04:47:25.148Z,99.99
2018-01-18T04:48:25.295Z,99.99
2018-01-18T04:49:25.101Z,99.99
2018-01-18T04:50:25.204Z,99.99
2018-01-18T04:51:25.039Z,99.99
2018-01-18T04:52:25.112Z,99.99
2018-01-18T04:53:24.987Z,99.99
2018-01-18T04:54:25.124Z,99.99
2018-01-18T04:55:24.928Z,99.99
2018-01-18T04:56:24.901Z,99.99
2018-01-18T04:57:25.039Z,99.99
2018-01-18T04:58:24.841Z,99.99
2018-01-18T04:59:24.948Z,99.99
2018-01-18T05:00:24.793Z,99.99
2018-01-18T05:01:24.859Z,99.99
2018-01-18T05:02:24.869Z,99.99
2018-01-18T05:03:24.707Z,99.99
2018-01-18T05:04:24.776Z,99.99
2018-01-18T05:05:24.649Z,99.99
2018-01-18T05:06:24.786Z,99.99
2018-01-18T05:07:24.592Z,99.99
2018-01-18T05:08:24.697Z,99.99
2018-01-18T05:09:24.542Z,99.99
2018-01-18T05:10:24.607Z,99.99
2018-01-18T05:11:24.483Z,99.99
2018-01-18T05:12:24.517Z,99.99
2018-01-18T05:13:24.524Z,99.99
2018-01-18T05:14:24.402Z,99.99
2018-01-18T05:15:24.433Z,99.99
2018-01-18T05:16:24.343Z,99.99
2018-01-18T05:17:24.344Z,99.99
2018-01-18T05:18:24.315Z,99.99
2018-01-18T05:19:24.263Z,99.99
2018-01-18T05:20:24.257Z,99.99
2018-01-18T05:21:24.211Z,99.99
2018-01-18T05:22:24.271Z,99.99
2018-01-18T05:23:24.152Z,99.99
2018-01-18T05:24:24.180Z,99.99
2018-01-18T05:25:24.093Z,99.99
2018-01-18T05:26:24.093Z,99.99
2018-01-18T05:27:24.039Z,99.99
2018-01-18T05:28:24.099Z,99.99
2018-01-18T05:29:23.979Z,99.99
2018-01-18T05:30:24.015Z,99.99
2018-01-18T05:31:23.923Z,99.99
2018-01-18T05:32:23.921Z,99.99
2018-01-18T05:33:23.869Z,99.99
2018-01-18T05:34:23.932Z,99.99
2018-01-18T05:35:23.817Z,99.99
2018-01-18T05:36:23.785Z,0.00
2018-01-18T05:37:23.850Z,0.00
2018-01-18T05:38:23.730Z,0.00
2018-01-18T05:39:23.759Z,0.00
2018-01-18T05:40:23.669Z,0.00
2018-01-18T05:41:23.640Z,0.00
2018-01-18T05:42:23.884Z,0.00
2018-01-18T05:43:23.785Z,0.00
2018-01-18T05:44:23.569Z,0.00
2018-01-18T05:45:23.594Z,0.00
2018-01-18T05:46:23.598Z,0.00
2018-01-18T05:47:23.477Z,0.00
2018-01-18T05:48:23.519Z,0.00
2018-01-18T05:49:23.415Z,0.00
2018-01-18T05:50:23.423Z,0.00
2018-01-18T05:51:23.360Z,0.00
2018-01-18T05:52:23.432Z,0.00
2018-01-18T05:53:23.309Z,0.00
2018-01-18T05:54:23.339Z,0.00
2018-01-18T05:55:23.253Z,0.00
2018-01-18T05:56:23.225Z,0.00
2018-01-18T05:57:23.196Z,0.00
2018-01-18T05:58:23.261Z,0.00
2018-01-18T05:59:23.138Z,0.00
2018-01-18T06:00:23.175Z,0.00
2018-01-18T06:01:23.086Z,0.00
2018-01-18T06:02:23.058Z,0.00
2018-01-18T06:03:23.087Z,0.00
2018-01-18T06:04:23.004Z,0.00
2018-01-18T06:05:24.023Z,0.00
2018-01-18T06:06:22.941Z,0.00
2018-01-18T06:07:23.012Z,0.00
2018-01-18T06:08:22.885Z,0.00
2018-01-18T06:09:22.924Z,0.00
2018-01-18T06:10:22.828Z,0.00
2018-01-18T06:11:22.829Z,0.00
2018-01-18T06:12:22.772Z,0.00
2018-01-18T06:13:22.840Z,0.00
2018-01-18T06:14:22.723Z,0.00
2018-01-18T06:15:22.754Z,0.00
2018-01-18T06:16:22.667Z,0.00
2018-01-18T06:17:22.660Z,0.00
2018-01-18T06:18:22.605Z,0.00
2018-01-18T06:19:22.673Z,0.00
2018-01-18T06:20:22.554Z,0.00
2018-01-18T06:21:22.584Z,0.00
2018-01-18T06:22:22.502Z,0.00
2018-01-18T06:23:22.495Z,0.00
2018-01-18T06:24:22.446Z,0.00
2018-01-18T06:25:22.412Z,0.00
2018-01-18T06:26:22.411Z,0.00
2018-01-18T06:27:22.353Z,0.00
2018-01-18T06:28:22.421Z,0.00
2018-01-18T06:29:22.298Z,0.00
2018-01-18T06:30:22.331Z,0.00
2018-01-18T06:31:22.338Z,0.00
2018-01-18T06:32:22.216Z,0.00
2018-01-18T06:33:22.248Z,0.00
2018-01-18T06:34:22.162Z,0.00
2018-01-18T06:35:23.180Z,0.00
2018-01-18T06:36:22.111Z,0.00
2018-01-18T06:37:22.082Z,0.00
2018-01-18T06:38:22.072Z,0.00
2018-01-18T06:39:22.029Z,0.00
2018-01-18T06:40:22.085Z,0.00
2018-01-18T06:41:21.971Z,0.00
2018-01-18T06:42:21.993Z,0.00
2018-01-18T06:43:21.915Z,0.00
2018-01-18T06:44:21.904Z,0.00
2018-01-18T06:45:21.858Z,0.00
2018-01-18T06:46:21.919Z,0.00
2018-01-18T06:47:21.805Z,0.00
2018-01-18T06:48:21.778Z,0.00
2018-01-18T06:49:21.752Z,0.00
2018-01-18T06:50:21.737Z,0.00
2018-01-18T06:51:21.696Z,0.00
2018-01-18T06:52:21.748Z,0.00
2018-01-18T06:53:21.639Z,0.00
2018-01-18T06:54:21.617Z,0.00
2018-01-18T06:55:21.584Z,0.00
2018-01-18T06:56:21.672Z,0.00
2018-01-18T06:57:21.526Z,0.00
2018-01-18T06:58:21.580Z,0.00
2018-01-18T06:59:21.473Z,0.00
2018-01-18T07:00:21.446Z,0.00
2018-01-18T07:01:21.498Z,0.00
2018-01-18T07:02:21.390Z,0.00
2018-01-18T07:03:21.407Z,0.00
2018-01-18T07:04:21.337Z,0.00
2018-01-18T07:05:22.341Z,0.00
2018-01-18T07:06:21.283Z,0.00
2018-01-18T07:07:21.329Z,0.00
2018-01-18T07:08:21.231Z,0.00
2018-01-18T07:09:21.239Z,0.00
2018-01-18T07:10:21.172Z,0.00
2018-01-18T07:11:21.270Z,0.00
2018-01-18T07:12:21.117Z,0.00
2018-01-18T07:13:21.159Z,0.00
2018-01-18T07:14:21.061Z,0.00
2018-01-18T07:15:22.093Z,0.00
2018-01-18T07:16:21.006Z,0.00
2018-01-18T07:17:21.083Z,0.00
2018-01-18T07:18:20.958Z,0.00
2018-01-18T07:19:20.996Z,0.00
2018-01-18T07:20:20.899Z,0.00
2018-01-18T07:21:20.900Z,0.00
2018-01-18T07:22:20.845Z,0.00
2018-01-18T07:23:20.815Z,0.00
2018-01-18T07:24:20.783Z,0.00
2018-01-18T07:25:21.848Z,0.00
2018-01-18T07:26:20.756Z,0.00
2018-01-18T07:27:20.735Z,0.00
2018-01-18T07:28:20.741Z,0.00
2018-01-18T07:29:20.650Z,0.00
2018-01-18T07:30:20.660Z,0.00
2018-01-18T07:31:20.626Z,0.00
2018-01-18T07:32:20.680Z,0.00
2018-01-18T07:33:20.544Z,0.00
2018-01-18T07:34:20.519Z,0.00
2018-01-18T07:35:20.488Z,0.00
2018-01-18T07:36:20.502Z,0.00
2018-01-18T07:37:20.454Z,0.00
2018-01-18T07:38:20.512Z,0.00
2018-01-18T07:39:20.387Z,0.00
2018-01-18T07:40:20.428Z,0.00
2018-01-18T07:41:20.429Z,0.00
2018-01-18T07:42:20.301Z,0.00
2018-01-18T07:43:20.340Z,0.00
2018-01-18T07:44:20.239Z,0.00
2018-01-18T07:45:20.224Z,0.00
2018-01-18T07:46:20.190Z,1.14
2018-01-18T07:47:20.169Z,2.56
2018-01-18T07:48:20.131Z,4.27
2018-01-18T07:49:20.112Z,5.60
2018-01-18T07:50:20.080Z,7.12
2018-01-18T07:51:20.060Z,10.92
2018-01-18T07:52:20.024Z,12.06
2018-01-18T07:53:19.996Z,13.20
2018-01-18T07:54:19.978Z,14.34
2018-01-18T07:55:19.949Z,15.58
2018-01-18T07:56:19.923Z,16.14
2018-01-18T07:57:19.895Z,17.85
2018-01-18T07:58:19.861Z,18.52
2018-01-18T07:59:19.838Z,20.61
2018-01-18T08:00:19.810Z,21.08
2018-01-18T08:01:19.783Z,22.32
2018-01-18T08:02:19.756Z,24.03
2018-01-18T08:03:19.732Z,24.98
2018-01-18T08:04:19.700Z,25.74
2018-01-18T08:05:19.677Z,27.07
2018-01-18T08:06:19.649Z,27.84
2018-01-18T08:07:19.630Z,28.51
2018-01-18T08:08:19.595Z,29.27
2018-01-18T08:09:19.569Z,30.69
2018-01-18T08:10:19.538Z,30.60
2018-01-18T08:11:19.567Z,31.55
2018-01-18T08:12:19.489Z,32.88
2018-01-18T08:13:19.468Z,33.17
2018-01-18T08:14:19.437Z,34.69
2018-01-18T08:15:20.420Z,35.54
2018-01-18T08:16:19.379Z,35.63
2018-01-18T08:17:19.360Z,36.58
2018-01-18T08:18:19.332Z,36.68
2018-01-18T08:19:19.307Z,35.92
2018-01-18T08:20:19.270Z,36.49
2018-01-18T08:21:19.252Z,37.06
2018-01-18T08:22:19.223Z,37.82
2018-01-18T08:23:19.197Z,40.29
2018-01-18T08:24:19.169Z,42.10
2018-01-18T08:25:20.146Z,42.86
2018-01-18T08:26:19.112Z,43.52
2018-01-18T08:27:19.083Z,43.90
2018-01-18T08:28:19.064Z,43.52
2018-01-18T08:29:19.042Z,43.43
2018-01-18T08:30:19.010Z,43.24
2018-01-18T08:31:18.982Z,43.62
2018-01-18T08:32:18.953Z,43.52
2018-01-18T08:33:18.926Z,43.43
2018-01-18T08:34:18.903Z,43.71
2018-01-18T08:35:18.876Z,43.33
2018-01-18T08:36:18.854Z,43.35
2018-01-18T08:37:18.820Z,43.07
2018-01-18T08:38:18.795Z,42.50
2018-01-18T08:39:18.762Z,42.12
2018-01-18T08:40:18.747Z,41.64
2018-01-18T08:41:18.713Z,40.12
2018-01-18T08:42:18.698Z,40.12
2018-01-18T08:43:18.656Z,41.17
2018-01-18T08:44:18.638Z,57.52
2018-01-18T08:45:18.603Z,62.94
2018-01-18T08:46:18.589Z,66.84
2018-01-18T08:47:18.558Z,66.08
2018-01-18T08:48:18.536Z,65.80
2018-01-18T08:49:18.504Z,67.25
2018-01-18T08:50:18.477Z,68.49
2018-01-18T08:51:18.451Z,66.87
2018-01-18T08:52:18.427Z,64.21
2018-01-18T08:53:18.408Z,63.32
2018-01-18T08:54:18.379Z,65.83
2018-01-18T08:55:18.345Z,69.92
2018-01-18T08:56:18.316Z,69.25
2018-01-18T08:57:18.292Z,69.63
2018-01-18T08:58:18.268Z,72.58
2018-01-18T08:59:18.242Z,74.10
2018-01-18T09:00:18.206Z,76.86
2018-01-18T09:01:18.193Z,73.53
2018-01-18T09:02:18.163Z,76.29
2018-01-18T09:03:18.128Z,79.52
2018-01-18T09:04:18.123Z,79.43
2018-01-18T09:05:18.081Z,80.57
2018-01-18T09:06:18.134Z,80.00
2018-01-18T09:07:18.027Z,79.05
2018-01-18T09:08:17.997Z,80.10
2018-01-18T09:09:17.976Z,81.71
2018-01-18T09:10:17.962Z,80.57
2018-01-18T09:11:17.919Z,82.04
2018-01-18T09:12:17.896Z,81.90
2018-01-18T09:13:17.867Z,81.71
2018-01-18T09:14:17.841Z,82.90
2018-01-18T09:15:17.821Z,82.23
2018-01-18T09:16:17.786Z,83.56
2018-01-18T09:17:17.764Z,82.99
2018-01-18T09:18:17.739Z,82.32
2018-01-18T09:19:17.712Z,83.75
2018-01-18T09:20:17.683Z,83.37
2018-01-18T09:21:17.661Z,83.94
2018-01-18T09:22:17.631Z,82.70
2018-01-18T09:23:17.607Z,83.28
2018-01-18T09:24:17.617Z,82.04
2018-01-18T09:25:17.554Z,81.85
2018-01-18T09:26:17.529Z,80.33
2018-01-18T09:27:17.504Z,80.61
2018-01-18T09:28:17.485Z,77.76
2018-01-18T09:29:17.453Z,77.56
2018-01-18T09:30:17.423Z,76.71
2018-01-18T09:31:17.396Z,76.42
2018-01-18T09:32:17.375Z,75.95
2018-01-18T09:33:17.345Z,75.09
2018-01-18T09:34:17.323Z,73.51
2018-01-18T09:35:17.289Z,72.27
2018-01-18T09:36:17.272Z,72.27
2018-01-18T09:37:17.245Z,72.75
2018-01-18T09:38:17.221Z,74.04
2018-01-18T09:39:17.193Z,73.47
2018-01-18T09:40:17.161Z,73.51
2018-01-18T09:41:17.140Z,72.27
2018-01-18T09:42:17.107Z,71.89
2018-01-18T09:43:17.080Z,72.56
2018-01-18T09:44:17.063Z,72.05
2018-01-18T09:45:17.030Z,72.05
2018-01-18T09:46:17.007Z,73.57
2018-01-18T09:47:16.981Z,72.05
2018-01-18T09:48:16.954Z,72.46
2018-01-18T09:49:16.928Z,73.19
2018-01-18T09:50:16.900Z,73.19
2018-01-18T09:51:16.870Z,73.57
2018-01-18T09:52:16.850Z,73.76
2018-01-18T09:53:16.827Z,72.81
2018-01-18T09:54:16.801Z,73.47
2018-01-18T09:55:16.765Z,72.62
2018-01-18T09:56:16.786Z,72.05
2018-01-18T09:57:16.720Z,71.86
2018-01-18T09:58:16.698Z,71.67
2018-01-18T09:59:16.661Z,71.47
2018-01-18T10:00:16.640Z,72.33
2018-01-18T10:01:16.614Z,72.62
2018-01-18T10:02:16.666Z,71.82
2018-01-18T10:03:16.562Z,71.06
2018-01-18T10:04:16.539Z,72.01
2018-01-18T10:05:16.513Z,71.63
2018-01-18T10:06:16.510Z,71.34
2018-01-18T10:07:16.463Z,71.44
2018-01-18T10:08:16.425Z,70.49
2018-01-18T10:09:16.412Z,70.10
2018-01-18T10:10:16.378Z,70.10
2018-01-18T10:11:16.358Z,70.97
2018-01-18T10:12:16.324Z,71.06
2018-01-18T10:13:16.361Z,70.68
2018-01-18T10:14:16.279Z,70.97
2018-01-18T10:15:16.248Z,70.20
2018-01-18T10:16:16.222Z,70.30
2018-01-18T10:17:16.196Z,70.01
2018-01-18T10:18:16.184Z,70.10
2018-01-18T10:19:16.142Z,69.98
2018-01-18T10:20:16.160Z,70.39
2018-01-18T10:21:16.087Z,70.17
2018-01-18T10:22:16.173Z,71.22
2018-01-18T10:23:16.050Z,71.15
2018-01-18T10:24:16.009Z,72.26
2018-01-18T10:25:16.090Z,72.35
2018-01-18T10:26:15.960Z,71.50
2018-01-18T10:27:16.004Z,72.55
2018-01-18T10:28:15.902Z,71.88
2018-01-18T10:29:15.877Z,70.74
2018-01-18T10:30:15.854Z,70.93
2018-01-18T10:31:15.921Z,71.41
2018-01-18T10:32:15.796Z,72.16
2018-01-18T10:33:15.834Z,72.45
2018-01-18T10:34:15.751Z,72.35
2018-01-18T10:35:15.724Z,71.66
2018-01-18T10:36:15.695Z,71.78
2018-01-18T10:37:15.754Z,71.46
2018-01-18T10:38:15.664Z,71.94
2018-01-18T10:39:15.662Z,71.66
2018-01-18T10:40:15.589Z,71.27
2018-01-18T10:41:15.568Z,72.13
2018-01-18T10:42:15.587Z,72.13
2018-01-18T10:43:15.513Z,71.84
2018-01-18T10:44:15.591Z,72.41
2018-01-18T10:45:15.474Z,72.89
2018-01-18T10:46:15.433Z,72.22
2018-01-18T10:47:15.404Z,72.13
2018-01-18T10:48:15.382Z,72.60
2018-01-18T10:49:15.354Z,72.41
2018-01-18T10:50:15.373Z,72.99
2018-01-18T10:51:15.300Z,73.71
2018-01-18T10:52:15.273Z,73.80
2018-01-18T10:53:15.246Z,74.08
2018-01-18T10:54:15.225Z,74.75
2018-01-18T10:55:15.192Z,73.90
2018-01-18T10:56:15.173Z,74.66
2018-01-18T10:57:15.138Z,75.32
2018-01-18T10:58:15.116Z,74.94
2018-01-18T10:59:15.082Z,75.04
2018-01-18T11:00:15.065Z,75.79
2018-01-18T11:01:15.034Z,76.08
2018-01-18T11:02:15.011Z,76.37
2018-01-18T11:03:14.979Z,76.27
2018-01-18T11:04:14.954Z,76.27
2018-01-18T11:05:14.930Z,77.03
2018-01-18T11:06:14.902Z,77.22
2018-01-18T11:07:14.879Z,77.60
2018-01-18T11:08:14.843Z,76.75
2018-01-18T11:09:14.821Z,77.12
2018-01-18T11:10:14.792Z,77.41
2018-01-18T11:11:14.786Z,78.03
2018-01-18T11:12:14.734Z,78.42
2018-01-18T11:13:14.718Z,78.42
2018-01-18T11:14:14.687Z,78.61
2018-01-18T11:15:14.664Z,78.51
2018-01-18T11:16:14.636Z,79.17
2018-01-18T11:17:14.608Z,79.84
2018-01-18T11:18:14.581Z,79.65
2018-01-18T11:19:14.560Z,79.84
2018-01-18T11:20:14.521Z,80.03
2018-01-18T11:21:14.501Z,80.22
2018-01-18T11:22:14.570Z,80.41
2018-01-18T11:23:14.451Z,80.13
2018-01-18T11:24:14.414Z,79.65
2018-01-18T11:25:14.400Z,79.55
2018-01-18T11:26:14.369Z,79.55
2018-01-18T11:27:14.342Z,80.60
2018-01-18T11:28:14.306Z,80.41
2018-01-18T11:29:14.287Z,80.32
2018-01-18T11:30:14.257Z,80.22
2018-01-18T11:31:14.239Z,80.51
2018-01-18T11:32:14.197Z,80.32
2018-01-18T11:33:14.176Z,80.51
2018-01-18T11:34:14.146Z,80.51
2018-01-18T11:35:14.122Z,80.03
2018-01-18T11:36:14.095Z,80.13
2018-01-18T11:37:14.068Z,80.51
2018-01-18T11:38:14.042Z,80.79
2018-01-18T11:39:14.013Z,80.79
2018-01-18T11:40:13.997Z,80.98
2018-01-18T11:41:13.966Z,80.41
2018-01-18T11:42:13.938Z,80.32
2018-01-18T11:43:13.907Z,80.60
2018-01-18T11:44:13.878Z,80.69
2018-01-18T11:45:13.863Z,81.65
2018-01-18T11:46:13.823Z,81.26
2018-01-18T11:47:13.800Z,81.84
2018-01-18T11:48:13.810Z,81.55
2018-01-18T11:49:13.746Z,81.65
2018-01-18T11:50:13.721Z,81.36
2018-01-18T11:51:13.699Z,80.98
2018-01-18T11:52:13.660Z,81.36
2018-01-18T11:53:13.661Z,81.26
2018-01-18T11:54:13.604Z,81.60
2018-01-18T11:55:13.589Z,83.22
2018-01-18T11:56:13.555Z,82.84
2018-01-18T11:57:13.532Z,84.83
2018-01-18T11:58:13.500Z,84.83
2018-01-18T11:59:13.473Z,83.97
2018-01-18T12:00:13.448Z,84.64
2018-01-18T12:01:13.425Z,84.45
2018-01-18T12:02:13.399Z,85.87
2018-01-18T12:03:13.363Z,86.25
2018-01-18T12:04:13.418Z,87.11
2018-01-18T12:05:13.312Z,87.39
2018-01-18T12:06:13.327Z,87.87
2018-01-18T12:07:13.259Z,86.40
2018-01-18T12:08:13.340Z,85.83
2018-01-18T12:09:13.200Z,86.59
2018-01-18T12:10:13.256Z,88.29
2018-01-18T12:11:13.156Z,86.97
2018-01-18T12:12:13.119Z,82.79
2018-01-18T12:13:13.100Z,81.18
2018-01-18T12:14:13.173Z,81.47
2018-01-18T12:15:13.038Z,83.46
2018-01-18T12:16:13.082Z,83.36
2018-01-18T12:17:12.983Z,82.23
2018-01-18T12:18:13.036Z,82.42
2018-01-18T12:19:12.931Z,82.89
2018-01-18T12:20:12.899Z,84.31
2018-01-18T12:21:12.906Z,81.85
2018-01-18T12:22:12.850Z,83.74
2018-01-18T12:23:12.919Z,83.36
2018-01-18T12:24:12.797Z,85.74
2018-01-18T12:25:12.776Z,83.55
2018-01-18T12:26:12.735Z,83.84
2018-01-18T12:27:12.745Z,85.64
2018-01-18T12:28:12.689Z,85.74
2018-01-18T12:29:12.751Z,84.98
2018-01-18T12:30:12.628Z,84.88
2018-01-18T12:31:12.602Z,89.43
2018-01-18T12:32:12.575Z,87.06
2018-01-18T12:33:12.576Z,86.40
2018-01-18T12:34:12.520Z,87.92
2018-01-18T12:35:12.587Z,86.40
2018-01-18T12:36:12.461Z,87.45
2018-01-18T12:37:12.438Z,88.48
2018-01-18T12:38:12.418Z,88.20
2018-01-18T12:39:12.405Z,87.58
2018-01-18T12:40:12.351Z,87.96
2018-01-18T12:41:12.415Z,88.06
2018-01-18T12:42:12.302Z,89.00
2018-01-18T12:43:12.276Z,88.24
2018-01-18T12:44:12.253Z,87.58
2018-01-18T12:45:12.244Z,88.62
2018-01-18T12:46:12.190Z,87.87
2018-01-18T12:47:12.255Z,88.62
2018-01-18T12:48:12.130Z,87.96
2018-01-18T12:49:12.158Z,88.34
2018-01-18T12:50:12.077Z,86.72
2018-01-18T12:51:12.171Z,87.20
2018-01-18T12:52:12.029Z,86.72
2018-01-18T12:53:12.079Z,87.49
2018-01-18T12:54:12.125Z,87.87
2018-01-18T12:55:12.092Z,87.77
2018-01-18T12:56:11.920Z,87.20
2018-01-18T12:57:12.000Z,86.54